Columbus, Ohio
Current Conditions -  °F | °C
As of 12:51 AM on Wednesday 28 Jan 2015 (Local Time) from KCMH Reporting Station
Clear Clear  
Wind Chill: 13°   Ceiling: Unl
Heat Index: 13°   Visibility: 8mi
Dew Point:   Wind: 3mph
Humidity: 84%   Direction: 290°WNW
Pressure: 30.23"   Gusts: NA
Location:  39.96°N, 83°W
Report Text: KCMH 280551Z 29003KT 8SM CLR M11/M13 A3023 RMK AO2 SLP251 T11061128 11072 21111 51010
Loading
Personal Weather Stations






























Interactive Weather Map New forecast layout! Learn more

10-Day Weather Forecast

Advertisements
Track Severe Weather on mobile